Time;durP1;ratioP1;P1;durP2;ratioP2;P2;SDS_P1;SDS_P2;PMS_P1;PMS_P2;Temp;Humidity;BMP_temperature;BMP_pressure;BME280_temperature;BME280_humidity;BME280_pressure;Samples;Min_cycle;Max_cycle;Signal;HPM_P1;HPM_P2
2023/11/28 00:00:35;;;;;;;16.33;10.50;;;;;;;-0.16;100.00;95621.06;6218544;28;20964;-40
2023/11/28 00:03:38;;;;;;;16.80;11.00;;;;;;;-0.15;100.00;95620.03;6226386;28;20217;-41
2023/11/28 00:06:40;;;;;;;13.37;9.80;;;;;;;-0.14;100.00;95626.88;6226791;28;20204;-40
2023/11/28 00:09:42;;;;;;;13.90;10.17;;;;;;;-0.17;100.00;95628.13;6227472;28;20235;-41
2023/11/28 00:12:44;;;;;;;11.97;9.10;;;;;;;-0.07;100.00;95644.06;6223268;28;20820;-40
2023/11/28 00:15:47;;;;;;;13.83;8.93;;;;;;;-0.05;100.00;95636.81;6225759;28;20224;-40
2023/11/28 00:18:49;;;;;;;12.13;8.73;;;;;;;-0.04;100.00;95634.97;6224237;28;20197;-42
2023/11/28 00:21:51;;;;;;;13.70;9.00;;;;;;;-0.05;100.00;95631.56;6226184;28;20205;-41
2023/11/28 00:24:54;;;;;;;13.50;9.83;;;;;;;-0.06;100.00;95634.38;6224796;28;20666;-42
2023/11/28 00:27:56;;;;;;;12.43;8.73;;;;;;;-0.07;100.00;95635.41;6225681;28;20196;-41
2023/11/28 00:31:00;;;;;;;12.57;8.33;;;;;;;-0.07;100.00;95632.81;6225842;28;20208;-41
2023/11/28 00:34:03;;;;;;;11.20;8.90;;;;;;;-0.07;100.00;95620.50;6202603;28;20232;-40
2023/11/28 00:37:05;;;;;;;13.40;9.70;;;;;;;-0.06;100.00;95634.38;6200826;28;20270;-40
2023/11/28 00:40:11;;;;;;;11.97;8.60;;;;;;;-0.04;100.00;95627.91;6215127;28;20192;-41
2023/11/28 00:43:17;;;;;;;11.93;8.60;;;;;;;-0.14;100.00;95611.97;6200652;28;20858;-40
2023/11/28 00:46:19;;;;;;;12.47;8.37;;;;;;;-0.02;100.00;95619.84;6215488;28;20639;-41
2023/11/28 00:49:21;;;;;;;10.20;8.43;;;;;;;0.00;100.00;95620.44;6202353;28;20731;-40
2023/11/28 00:52:24;;;;;;;12.23;8.40;;;;;;;-0.02;100.00;95614.59;6208556;28;20598;-41
2023/11/28 00:55:27;;;;;;;11.83;9.17;;;;;;;-0.02;100.00;95604.94;6194267;28;20223;-40
2023/11/28 00:58:29;;;;;;;15.30;9.53;;;;;;;-0.02;100.00;95614.59;6201000;28;20204;-40
2023/11/28 01:01:31;;;;;;;12.47;9.13;;;;;;;-0.05;100.00;95617.66;6201238;28;20207;-41
2023/11/28 01:04:33;;;;;;;13.73;8.90;;;;;;;-0.05;100.00;95610.63;6195190;28;20217;-41
2023/11/28 01:07:37;;;;;;;14.17;8.63;;;;;;;-0.04;100.00;95596.53;6224593;28;20699;-40
2023/11/28 01:10:39;;;;;;;13.13;9.27;;;;;;;-0.03;100.00;95594.69;6215735;28;20204;-41
2023/11/28 01:13:41;;;;;;;12.23;9.67;;;;;;;-0.07;100.00;95594.34;6196237;28;20198;-41
2023/11/28 01:16:46;;;;;;;12.90;8.83;;;;;;;-0.04;100.00;95600.97;6202635;28;20208;-41
2023/11/28 01:19:49;;;;;;;13.87;9.10;;;;;;;-0.04;100.00;95596.53;6212601;28;20255;-40
2023/11/28 01:22:51;;;;;;;14.57;9.93;;;;;;;-0.05;100.00;95594.94;6204723;28;20220;-40
2023/11/28 01:25:54;;;;;;;15.23;9.33;;;;;;;-0.03;100.00;95586.84;6185464;28;20741;-41
2023/11/28 01:28:56;;;;;;;11.63;9.13;;;;;;;0.00;100.00;95589.03;6213645;28;20196;-40
2023/11/28 01:31:58;;;;;;;12.00;9.03;;;;;;;0.02;100.00;95586.97;6213571;28;20721;-41
2023/11/28 01:35:00;;;;;;;14.07;9.93;;;;;;;0.03;100.00;95580.69;6208613;28;20212;-39
2023/11/28 01:38:03;;;;;;;12.70;9.20;;;;;;;0.05;100.00;95585.69;6194619;28;20208;-40
2023/11/28 01:41:05;;;;;;;11.33;8.27;;;;;;;0.04;100.00;95579.66;6218773;28;20680;-41
2023/11/28 01:44:10;;;;;;;13.33;10.13;;;;;;;0.05;100.00;95570.81;6213420;28;20764;-40
2023/11/28 01:47:12;;;;;;;13.57;8.47;;;;;;;0.05;100.00;95570.00;6208085;28;20215;-41
2023/11/28 01:50:14;;;;;;;14.30;9.47;;;;;;;0.04;100.00;95568.41;6205404;28;20259;-41
2023/11/28 01:53:17;;;;;;;14.23;9.23;;;;;;;0.02;100.00;95562.59;6201384;28;20196;-41
2023/11/28 01:56:21;;;;;;;12.50;8.97;;;;;;;-0.02;100.00;95559.63;6207285;28;20653;-41
2023/11/28 01:59:24;;;;;;;15.33;8.70;;;;;;;-0.04;100.00;95556.47;6212338;28;20660;-41
2023/11/28 02:02:28;;;;;;;12.63;9.57;;;;;;;-0.05;100.00;95562.69;6179362;28;20690;-40
2023/11/28 02:05:31;;;;;;;12.30;9.43;;;;;;;-0.11;100.00;95553.94;6214184;28;20684;-41
2023/11/28 02:08:34;;;;;;;13.77;8.73;;;;;;;-0.05;100.00;95555.69;6212723;28;20587;-41
2023/11/28 02:11:36;;;;;;;12.27;8.67;;;;;;;0.02;100.00;95552.94;6194019;28;20207;-40
2023/11/28 02:14:45;;;;;;;9.97;7.80;;;;;;;0.22;100.00;95542.91;6216617;28;20211;-40
2023/11/28 02:17:48;;;;;;;9.23;7.13;;;;;;;0.37;100.00;95534.56;6197834;28;20580;-42
2023/11/28 02:20:51;;;;;;;8.13;6.60;;;;;;;0.34;100.00;95515.91;6192399;28;20298;-41
2023/11/28 02:23:54;;;;;;;9.17;6.90;;;;;;;0.44;100.00;95523.97;6196017;28;20216;-41
2023/11/28 02:26:56;;;;;;;9.27;7.87;;;;;;;0.37;100.00;95518.88;6205830;28;20275;-41
2023/11/28 02:29:58;;;;;;;10.43;8.00;;;;;;;0.27;100.00;95499.53;6192986;28;20209;-41
2023/11/28 02:33:00;;;;;;;11.23;7.97;;;;;;;0.18;100.00;95496.47;6179892;28;20283;-40
2023/11/28 02:36:02;;;;;;;9.63;7.73;;;;;;;0.11;100.00;95491.38;6203129;28;20197;-41
2023/11/28 02:39:04;;;;;;;10.50;8.10;;;;;;;0.03;100.00;95491.69;6203098;28;20201;-41
2023/11/28 02:42:06;;;;;;;10.90;8.40;;;;;;;0.02;100.00;95484.88;6206345;28;20565;-41
2023/11/28 02:45:09;;;;;;;10.93;7.70;;;;;;;0.01;100.00;95479.88;6207295;28;20219;-40
2023/11/28 02:48:12;;;;;;;13.30;7.77;;;;;;;-0.02;100.00;95481.13;6201627;28;20291;-42
2023/11/28 02:51:19;;;;;;;10.67;7.87;;;;;;;-0.01;100.00;95475.66;6191672;28;20199;-40
2023/11/28 02:54:21;;;;;;;10.07;7.13;;;;;;;-0.03;100.00;95469.88;6185317;28;20189;-41
2023/11/28 02:57:23;;;;;;;10.90;7.67;;;;;;;0.02;100.00;95474.41;6191131;28;20202;-41
2023/11/28 03:00:26;;;;;;;9.00;7.17;;;;;;;0.02;100.00;95463.94;6216333;28;20745;-42
2023/11/28 03:03:28;;;;;;;10.07;7.20;;;;;;;0.01;100.00;95462.34;6211838;28;20328;-41
2023/11/28 03:06:30;;;;;;;9.90;7.93;;;;;;;0.04;100.00;95464.50;6212896;28;20192;-41
2023/11/28 03:09:32;;;;;;;7.70;6.80;;;;;;;0.07;100.00;95466.66;6204957;28;20262;-41
2023/11/28 03:12:35;;;;;;;9.60;6.77;;;;;;;0.11;100.00;95461.78;6196296;28;20272;-41
2023/11/28 03:15:37;;;;;;;12.47;6.90;;;;;;;0.16;100.00;95461.88;6174247;28;20201;-41
2023/11/28 03:18:39;;;;;;;8.30;6.53;;;;;;;0.19;100.00;95458.78;6203428;28;20205;-40
2023/11/28 03:21:42;;;;;;;7.50;6.10;;;;;;;0.20;100.00;95461.19;6218496;28;20271;-40
2023/11/28 03:24:44;;;;;;;8.50;6.90;;;;;;;0.28;100.00;95472.31;6218336;28;20210;-40
2023/11/28 03:27:47;;;;;;;7.47;5.60;;;;;;;0.30;100.00;95465.03;6215252;28;20252;-41
2023/11/28 03:30:50;;;;;;;7.93;6.30;;;;;;;0.31;100.00;95456.94;6177452;28;20216;-41
2023/11/28 03:33:52;;;;;;;8.17;5.80;;;;;;;0.32;100.00;95452.50;6217879;28;20231;-40
2023/11/28 03:36:54;;;;;;;9.37;7.20;;;;;;;0.34;100.00;95445.19;6208833;28;20214;-42
2023/11/28 03:39:56;;;;;;;8.40;6.53;;;;;;;0.33;100.00;95441.78;6206751;28;20653;-41
2023/11/28 03:42:58;;;;;;;11.03;6.87;;;;;;;0.33;100.00;95444.41;6212105;28;20791;-41
2023/11/28 03:46:00;;;;;;;7.57;5.33;;;;;;;0.35;100.00;95446.81;6212328;28;20670;-41
2023/11/28 03:49:02;;;;;;;8.20;6.47;;;;;;;0.33;100.00;95441.00;6186465;28;20205;-40
2023/11/28 03:52:05;;;;;;;7.20;6.13;;;;;;;0.31;100.00;95443.84;6212212;28;20199;-40
2023/11/28 03:55:09;;;;;;;9.50;6.90;;;;;;;0.31;100.00;95446.47;6194416;28;20704;-41
2023/11/28 03:58:11;;;;;;;9.17;6.13;;;;;;;0.31;100.00;95443.06;6181490;28;20203;-41
2023/11/28 04:01:13;;;;;;;8.73;6.27;;;;;;;0.33;100.00;95438.38;6186400;28;20198;-40
2023/11/28 04:04:16;;;;;;;7.43;5.77;;;;;;;0.34;100.00;95439.97;6185778;28;20216;-41
2023/11/28 04:07:18;;;;;;;7.20;5.97;;;;;;;0.34;100.00;95432.91;6175393;28;20205;-40
2023/11/28 04:10:20;;;;;;;8.23;6.13;;;;;;;0.33;100.00;95438.38;6203829;28;20201;-40
2023/11/28 04:13:22;;;;;;;7.33;5.70;;;;;;;0.32;100.00;95424.50;6206950;28;20564;-40
2023/11/28 04:16:24;;;;;;;7.83;5.93;;;;;;;0.22;100.00;95406.75;6197600;28;20213;-40
2023/11/28 04:19:26;;;;;;;6.37;5.60;;;;;;;0.31;100.00;95433.38;6213146;28;20200;-40
2023/11/28 04:22:29;;;;;;;8.83;5.87;;;;;;;0.31;100.00;95433.38;6215784;28;20207;-40
2023/11/28 04:25:31;;;;;;;7.83;5.50;;;;;;;0.32;100.00;95436.78;6184681;28;20309;-40
2023/11/28 04:28:34;;;;;;;7.13;5.10;;;;;;;0.33;100.00;95430.53;6178481;28;20558;-41
2023/11/28 04:31:38;;;;;;;7.10;5.63;;;;;;;0.15;100.00;95406.09;6210124;28;20192;-40
2023/11/28 04:34:40;;;;;;;8.97;5.53;;;;;;;0.35;100.00;95431.09;6199283;28;20208;-41
2023/11/28 04:37:42;;;;;;;8.20;5.33;;;;;;;0.25;100.00;95413.38;6207008;28;20201;-41
2023/11/28 04:40:44;;;;;;;6.90;5.10;;;;;;;0.35;100.00;95431.91;6199425;28;20209;-41
2023/11/28 04:43:47;;;;;;;5.80;4.87;;;;;;;0.35;100.00;95431.91;6198001;28;20212;-40
2023/11/28 04:46:49;;;;;;;6.73;4.83;;;;;;;0.37;100.00;95435.06;6189385;28;20674;-41
2023/11/28 04:49:52;;;;;;;5.77;4.60;;;;;;;0.37;100.00;95434.28;6208048;28;20708;-40
2023/11/28 04:52:54;;;;;;;6.53;5.10;;;;;;;0.38;100.00;95428.00;6191333;28;20201;-40
2023/11/28 04:55:56;;;;;;;6.77;5.10;;;;;;;0.38;100.00;95428.78;6222206;28;20598;-42
2023/11/28 04:58:59;;;;;;;7.10;5.30;;;;;;;0.38;100.00;95435.84;6214216;28;20276;-42
2023/11/28 05:02:01;;;;;;;8.00;5.83;;;;;;;0.24;100.00;95422.22;6202277;28;20282;-41
2023/11/28 05:05:05;;;;;;;7.23;5.67;;;;;;;0.37;100.00;95436.88;6181572;28;20224;-40
2023/11/28 05:08:08;;;;;;;5.63;4.90;;;;;;;0.38;100.00;95436.66;6182050;28;20212;-40
2023/11/28 05:11:10;;;;;;;6.13;4.80;;;;;;;0.39;100.00;95433.00;6176535;28;20193;-41
2023/11/28 05:14:12;;;;;;;5.67;4.73;;;;;;;0.41;100.00;95436.19;6215969;28;20185;-40
2023/11/28 05:17:15;;;;;;;6.43;4.43;;;;;;;0.43;100.00;95436.75;6184385;28;20205;-41
2023/11/28 05:20:18;;;;;;;6.23;5.20;;;;;;;0.35;100.00;95429.28;6183539;28;20232;-41
2023/11/28 05:23:22;;;;;;;6.23;5.33;;;;;;;0.43;100.00;95438.56;6201262;28;20724;-41
2023/11/28 05:26:25;;;;;;;6.03;5.07;;;;;;;0.41;100.00;95430.94;6217370;28;20212;-41
2023/11/28 05:29:27;;;;;;;7.07;5.00;;;;;;;0.43;100.00;95433.34;6202475;28;20209;-41
2023/11/28 05:32:29;;;;;;;7.63;5.37;;;;;;;0.41;100.00;95430.94;6196267;28;20233;-41
2023/11/28 05:35:33;;;;;;;10.10;6.00;;;;;;;0.44;100.00;95430.50;6188006;28;20293;-40
2023/11/28 05:38:35;;;;;;;7.57;5.60;;;;;;;0.45;100.00;95429.47;6189930;28;20194;-43
2023/11/28 05:41:38;;;;;;;9.10;7.23;;;;;;;0.47;100.00;95418.75;6195901;28;20205;-40
2023/11/28 05:44:40;;;;;;;10.27;7.00;;;;;;;0.45;100.00;95424.22;6220170;28;20297;-41
2023/11/28 05:47:44;;;;;;;8.97;7.00;;;;;;;0.48;100.00;95430.81;6220335;28;20626;-41
2023/11/28 05:50:46;;;;;;;8.37;6.67;;;;;;;0.47;100.00;95422.16;6192173;28;20201;-41
2023/11/28 05:53:48;;;;;;;9.53;7.43;;;;;;;0.45;100.00;95415.56;6201879;28;20196;-42
2023/11/28 05:56:50;;;;;;;9.33;7.63;;;;;;;0.41;100.00;95417.06;6198096;28;20208;-41
2023/11/28 05:59:52;;;;;;;9.80;7.67;;;;;;;0.43;100.00;95412.38;6207770;28;20208;-41
2023/11/28 06:02:54;;;;;;;10.93;8.27;;;;;;;0.41;100.00;95419.69;6193478;28;20204;-44
2023/11/28 06:05:57;;;;;;;9.53;8.40;;;;;;;0.41;100.00;95414.44;6213662;28;20777;-42
2023/11/28 06:08:59;;;;;;;10.60;7.93;;;;;;;0.41;100.00;95420.47;6186113;28;20717;-41
2023/11/28 06:12:01;;;;;;;11.33;8.53;;;;;;;0.44;100.00;95416.59;6215776;28;20782;-41
2023/11/28 06:15:08;;;;;;;9.50;7.80;;;;;;;0.42;100.00;95416.81;6194843;28;20874;-43
2023/11/28 06:18:11;;;;;;;11.63;9.00;;;;;;;0.43;100.00;95422.84;6211790;28;20297;-41
2023/11/28 06:21:13;;;;;;;13.57;9.20;;;;;;;0.45;100.00;95431.28;6206948;28;20205;-41
2023/11/28 06:24:16;;;;;;;11.50;8.90;;;;;;;0.34;100.00;95400.69;6181736;28;20308;-42
2023/11/28 06:27:18;;;;;;;12.10;9.17;;;;;;;0.45;100.00;95413.75;6202127;28;20678;-40
2023/11/28 06:30:24;;;;;;;12.90;9.07;;;;;;;0.48;100.00;95421.13;6217091;28;20216;-42
2023/11/28 06:33:29;;;;;;;12.73;8.43;;;;;;;0.49;100.00;95429.78;6213941;28;20240;-41
2023/11/28 06:36:31;;;;;;;10.93;8.57;;;;;;;0.49;100.00;95417.50;6201436;28;20197;-42
2023/11/28 06:39:36;;;;;;;12.10;8.80;;;;;;;0.50;100.00;95432.19;6219084;28;20669;-41
2023/11/28 06:42:38;;;;;;;12.17;9.27;;;;;;;0.55;100.00;95413.16;6218932;28;20621;-40
2023/11/28 06:45:40;;;;;;;11.70;9.10;;;;;;;0.59;100.00;95424.75;6218389;28;20584;-41
2023/11/28 06:48:42;;;;;;;10.53;8.93;;;;;;;0.59;100.00;95424.75;6218918;28;20189;-41
2023/11/28 06:51:44;;;;;;;10.97;8.17;;;;;;;0.64;100.00;95418.78;6218875;28;20193;-42
2023/11/28 06:54:46;;;;;;;14.30;9.73;;;;;;;0.70;100.00;95417.88;6219132;28;20199;-42
2023/11/28 06:57:48;;;;;;;13.10;8.83;;;;;;;0.72;100.00;95423.66;6218392;28;20193;-42
2023/11/28 07:00:50;;;;;;;3.97;3.60;;;;;;;1.00;100.00;95396.63;6218821;28;20194;-42
2023/11/28 07:03:55;;;;;;;6.97;5.63;;;;;;;1.22;100.00;95418.47;6217731;28;20309;-41
2023/11/28 07:06:57;;;;;;;6.83;5.57;;;;;;;1.10;100.00;95386.28;6218697;28;20239;-42
2023/11/28 07:09:59;;;;;;;4.67;3.57;;;;;;;1.45;100.00;95414.09;6218019;28;20585;-42
2023/11/28 07:13:01;;;;;;;3.33;2.93;;;;;;;1.72;100.00;95404.50;6218428;28;20220;-42
2023/11/28 07:16:04;;;;;;;4.03;3.00;;;;;;;1.82;100.00;95414.34;6217174;28;20669;-41
2023/11/28 07:19:06;;;;;;;2.83;2.57;;;;;;;2.01;100.00;95412.22;6217987;28;20664;-42
2023/11/28 07:22:10;;;;;;;2.80;2.27;;;;;;;2.00;100.00;95402.78;6218447;28;20202;-42
2023/11/28 07:25:14;;;;;;;2.30;2.03;;;;;;;2.03;100.00;95397.03;6218203;28;20212;-42
2023/11/28 07:28:16;;;;;;;3.60;2.00;;;;;;;2.08;100.00;95401.56;6218450;28;20285;-42
2023/11/28 07:31:18;;;;;;;2.10;1.87;;;;;;;2.12;100.00;95398.22;6217964;28;20608;-41
2023/11/28 07:34:20;;;;;;;2.27;2.07;;;;;;;2.15;100.00;95396.91;6194597;28;20227;-43
2023/11/28 07:37:23;;;;;;;1.80;1.70;;;;;;;2.04;100.00;95375.00;6192750;28;20557;-42
2023/11/28 07:40:29;;;;;;;2.40;2.20;;;;;;;2.22;100.00;95387.03;6193772;28;20586;-42
2023/11/28 07:43:33;;;;;;;2.43;2.20;;;;;;;2.24;100.00;95393.63;6193792;28;20279;-42
2023/11/28 07:46:35;;;;;;;3.17;2.23;;;;;;;2.22;100.00;95395.69;6193333;28;20222;-43
2023/11/28 07:49:37;;;;;;;2.47;2.27;;;;;;;2.26;100.00;95403.88;6193486;28;20197;-43
2023/11/28 07:52:40;;;;;;;3.07;2.30;;;;;;;2.26;100.00;95401.22;6193533;28;20796;-44
2023/11/28 07:55:42;;;;;;;2.20;2.00;;;;;;;2.28;100.00;95394.72;6193459;28;20278;-42
2023/11/28 07:58:45;;;;;;;2.10;1.87;;;;;;;2.28;100.00;95397.34;6191996;28;20203;-42
2023/11/28 08:01:47;;;;;;;2.63;1.90;;;;;;;2.30;100.00;95391.84;6191611;28;20673;-42
2023/11/28 08:04:49;;;;;;;1.80;1.70;;;;;;;2.36;100.00;95396.09;6193076;28;20215;-42
2023/11/28 08:07:52;;;;;;;2.00;1.73;;;;;;;2.37;100.00;95402.97;6193085;28;20211;-45
2023/11/28 08:10:54;;;;;;;1.70;1.60;;;;;;;2.41;100.00;95405.88;6173466;28;20208;-43
2023/11/28 08:13:56;;;;;;;1.93;1.80;;;;;;;2.49;100.00;95400.97;6192869;28;20189;-43
2023/11/28 08:16:58;;;;;;;2.10;1.70;;;;;;;2.53;100.00;95398.66;6191282;28;20681;-43
2023/11/28 08:20:00;;;;;;;2.00;1.67;;;;;;;2.56;100.00;95409.47;6193667;28;20663;-43
2023/11/28 08:23:03;;;;;;;2.30;1.73;;;;;;;2.55;100.00;95402.63;6195001;28;20212;-42
2023/11/28 08:26:05;;;;;;;1.87;1.67;;;;;;;2.57;100.00;95394.50;6197724;28;20203;-42
2023/11/28 08:29:08;;;;;;;1.70;1.60;;;;;;;2.61;100.00;95398.22;6197731;28;20674;-42
2023/11/28 08:32:10;;;;;;;1.80;1.70;;;;;;;2.61;100.00;95402.66;6197224;28;20243;-42
2023/11/28 08:35:12;;;;;;;2.27;1.80;;;;;;;2.49;100.00;95390.47;6202126;28;20258;-42
2023/11/28 08:38:14;;;;;;;1.87;1.67;;;;;;;2.64;100.00;95399.56;6202214;28;20226;-43
2023/11/28 08:41:18;;;;;;;2.03;1.67;;;;;;;2.61;100.00;95405.28;6197879;28;20690;-43
2023/11/28 08:44:21;;;;;;;1.40;1.30;;;;;;;2.63;100.00;95403.22;6198179;28;20216;-45
2023/11/28 08:47:23;;;;;;;1.50;1.40;;;;;;;2.63;100.00;95405.84;6196814;28;20574;-44
2023/11/28 08:50:25;;;;;;;2.67;1.67;;;;;;;2.66;100.00;95403.53;6199668;28;20241;-44
2023/11/28 08:53:27;;;;;;;3.40;1.40;;;;;;;2.64;100.00;95407.44;6204368;28;20562;-43
2023/11/28 08:56:29;;;;;;;1.27;1.17;;;;;;;2.66;100.00;95403.53;6202850;28;20193;-45
2023/11/28 08:59:31;;;;;;;1.53;1.43;;;;;;;2.58;100.00;95386.38;6198674;28;20204;-43
2023/11/28 09:02:33;;;;;;;1.50;1.40;;;;;;;2.70;100.00;95404.59;6197249;28;20332;-45
2023/11/28 09:05:36;;;;;;;1.50;1.40;;;;;;;2.69;100.00;95392.50;6204011;28;20200;-44
2023/11/28 09:08:38;;;;;;;1.23;1.13;;;;;;;2.72;100.00;95391.22;6198534;28;20212;-42
2023/11/28 09:11:45;;;;;;;1.27;1.17;;;;;;;2.69;100.00;95379.38;6195785;28;20207;-42
2023/11/28 09:14:47;;;;;;;1.50;1.40;;;;;;;2.79;100.00;95384.72;6193591;28;20201;-43
2023/11/28 09:17:57;;;;;;;1.40;1.30;;;;;;;2.85;100.00;95394.22;6202461;28;20206;-44
2023/11/28 09:20:59;;;;;;;1.57;1.20;;;;;;;2.88;100.00;95386.91;6204475;28;20737;-44
2023/11/28 09:24:02;;;;;;;1.40;1.30;;;;;;;2.90;100.00;95384.81;6199851;28;20198;-44
2023/11/28 09:27:06;;;;;;;1.30;1.20;;;;;;;2.94;100.00;95388.53;6201843;28;21197;-43
2023/11/28 09:30:09;;;;;;;1.53;1.30;;;;;;;2.96;100.00;95382.00;6191715;28;20197;-43
2023/11/28 09:33:11;;;;;;;1.33;1.23;;;;;;;3.00;100.00;95380.44;6191450;28;20228;-43
2023/11/28 09:36:14;;;;;;;1.33;1.20;;;;;;;3.06;100.00;95376.03;6195364;28;20197;-44
2023/11/28 09:39:16;;;;;;;1.17;1.07;;;;;;;3.13;100.00;95368.69;6196116;28;20201;-43
2023/11/28 09:42:21;;;;;;;1.40;1.20;;;;;;;3.17;100.00;95367.16;6196211;28;20673;-44
2023/11/28 09:45:26;;;;;;;1.17;1.10;;;;;;;3.20;100.00;95364.03;6195448;28;20224;-43
2023/11/28 09:48:29;;;;;;;1.63;1.53;;;;;;;3.18;100.00;95368.75;6193384;28;20564;-43
2023/11/28 09:51:33;;;;;;;1.77;1.47;;;;;;;3.16;100.00;95365.59;6195966;28;20217;-43
2023/11/28 09:54:39;;;;;;;1.73;1.43;;;;;;;3.19;100.00;95365.06;6194112;28;20600;-43
2023/11/28 09:57:45;;;;;;;2.40;2.20;;;;;;;3.21;100.00;95356.94;6194846;28;20546;-43
2023/11/28 10:00:50;;;;;;;2.10;1.80;;;;;;;3.26;100.00;95364.88;6194505;28;20553;-43
2023/11/28 10:03:53;;;;;;;2.23;2.03;;;;;;;3.29;100.00;95359.09;6194805;28;20603;-43
2023/11/28 10:07:00;;;;;;;2.03;1.90;;;;;;;3.26;100.00;95344.59;6194841;28;20209;-43
2023/11/28 10:10:13;;;;;;;3.33;2.40;;;;;;;3.34;100.00;95349.38;6195574;28;20670;-43
2023/11/28 10:13:15;;;;;;;2.57;2.37;;;;;;;3.40;100.00;95342.34;6192407;28;20681;-45
2023/11/28 10:16:41;;;;;;;2.63;2.13;;;;;;;3.45;100.00;95345.00;6193893;28;20189;-43
2023/11/28 10:19:44;;;;;;;2.87;2.50;;;;;;;3.46;100.00;95340.53;6194258;28;20296;-44
2023/11/28 10:22:52;;;;;;;2.83;2.50;;;;;;;3.53;100.00;95341.88;6178192;28;20913;-43
2023/11/28 10:25:54;;;;;;;2.27;2.07;;;;;;;3.50;100.00;95336.34;6192804;28;20249;-44
2023/11/28 10:28:57;;;;;;;4.33;3.03;;;;;;;3.59;100.00;95342.69;6195238;28;20335;-44
2023/11/28 10:32:02;;;;;;;3.47;2.90;;;;;;;3.63;100.00;95343.75;6198558;28;20315;-45
2023/11/28 10:35:06;;;;;;;2.87;2.67;;;;;;;3.62;100.00;95350.09;6218995;28;20204;-45
2023/11/28 10:38:14;;;;;;;3.17;2.40;;;;;;;3.70;100.00;95349.63;6215724;28;20197;-44
2023/11/28 10:41:16;;;;;;;2.90;2.70;;;;;;;3.75;100.00;95346.22;6218893;28;20200;-43
2023/11/28 10:44:19;;;;;;;3.07;2.77;;;;;;;3.80;100.00;95348.88;6219313;28;20270;-43
2023/11/28 10:47:21;;;;;;;3.47;3.00;;;;;;;3.80;100.00;95341.75;6222538;28;20200;-43
2023/11/28 10:50:24;;;;;;;2.87;2.47;;;;;;;3.88;100.00;95351.00;6218693;28;20677;-45
2023/11/28 10:53:31;;;;;;;3.03;2.43;;;;;;;3.89;100.00;95336.78;6219020;28;20205;-44
2023/11/28 10:56:51;;;;;;;2.60;2.40;;;;;;;3.96;100.00;95345.25;6219299;28;20650;-43
2023/11/28 11:00:01;;;;;;;2.50;2.30;;;;;;;4.03;100.00;95340.53;6217996;28;20291;-44
2023/11/28 11:03:04;;;;;;;2.27;2.07;;;;;;;4.11;100.00;95342.69;6219056;28;20559;-43
2023/11/28 11:06:07;;;;;;;2.33;1.97;;;;;;;4.09;100.00;95342.16;6218885;28;20216;-43
2023/11/28 11:09:11;;;;;;;2.00;1.80;;;;;;;4.16;100.00;95347.16;6218688;28;20198;-42
2023/11/28 11:12:15;;;;;;;2.00;1.67;;;;;;;4.21;100.00;95351.66;6217415;28;20574;-44
2023/11/28 11:15:32;;;;;;;2.07;1.40;;;;;;;4.21;100.00;95341.13;6217663;28;20190;-44
2023/11/28 11:19:01;;;;;;;1.83;1.10;;;;;;;4.23;100.00;95342.44;6216522;28;20764;-44
2023/11/28 11:22:09;;;;;;;0.93;0.93;;;;;;;4.30;100.00;95337.72;6197648;28;20458;-43
2023/11/28 11:25:12;;;;;;;1.27;1.17;;;;;;;4.34;100.00;95338.81;6216621;28;20669;-43
2023/11/28 11:28:14;;;;;;;1.10;1.00;;;;;;;4.20;100.00;95318.47;6218208;28;20193;-43
2023/11/28 11:31:17;;;;;;;0.93;0.77;;;;;;;4.33;100.00;95336.41;6217179;28;20202;-44
2023/11/28 11:34:41;;;;;;;1.17;1.00;;;;;;;4.40;100.00;95343.03;6192822;28;20238;-44
2023/11/28 11:37:43;;;;;;;0.77;0.73;;;;;;;4.49;100.00;95342.53;6193442;28;20879;-45
2023/11/28 11:40:48;;;;;;;1.10;0.93;;;;;;;4.42;100.00;95345.41;6194997;28;20351;-43
2023/11/28 11:43:52;;;;;;;0.70;0.70;;;;;;;4.44;100.00;95343.31;6200245;28;20734;-44
2023/11/28 11:46:54;;;;;;;0.60;0.60;;;;;;;4.51;100.00;95343.84;6196179;28;20296;-44
2023/11/28 11:50:01;;;;;;;0.60;0.60;;;;;;;4.61;100.00;95343.06;6190292;28;20717;-45
2023/11/28 11:53:08;;;;;;;0.53;0.50;;;;;;;4.65;100.00;95350.19;6194933;28;20288;-45
2023/11/28 11:56:11;;;;;;;1.20;0.40;;;;;;;4.62;100.00;95360.47;6192698;28;20851;-43
2023/11/28 11:59:13;;;;;;;0.50;0.50;;;;;;;4.71;98.84;95343.09;6191779;28;20206;-45
2023/11/28 12:02:15;;;;;;;0.53;0.53;;;;;;;4.62;100.00;95360.47;6193537;28;20320;-44
2023/11/28 12:05:18;;;;;;;0.90;0.60;;;;;;;4.54;100.00;95363.63;6193028;28;20209;-42
2023/11/28 12:08:23;;;;;;;0.50;0.50;;;;;;;4.32;100.00;95330.34;6193271;28;20205;-43
2023/11/28 12:11:25;;;;;;;0.40;0.40;;;;;;;4.57;100.00;95363.88;6201561;28;20252;-43
2023/11/28 12:14:27;;;;;;;1.20;0.70;;;;;;;4.59;100.00;95368.91;6195144;28;20198;-43
2023/11/28 12:17:29;;;;;;;1.00;0.80;;;;;;;4.62;100.00;95358.63;6192493;28;20662;-44
2023/11/28 12:20:32;;;;;;;1.03;0.90;;;;;;;4.54;100.00;95353.09;6192869;28;20200;-43
2023/11/28 12:23:43;;;;;;;0.93;0.90;;;;;;;4.49;100.00;95371.53;6190359;28;20201;-43
2023/11/28 12:26:45;;;;;;;2.00;1.13;;;;;;;4.45;100.00;95373.88;6192725;28;20201;-43
2023/11/28 12:29:49;;;;;;;1.47;0.83;;;;;;;4.34;100.00;95383.59;6191337;28;20353;-43
2023/11/28 12:32:51;;;;;;;1.30;1.00;;;;;;;4.22;100.00;95380.38;6191409;28;20233;-43
2023/11/28 12:35:55;;;;;;;1.10;1.00;;;;;;;4.18;100.00;95376.69;6193189;28;20190;-44
2023/11/28 12:39:05;;;;;;;1.23;1.13;;;;;;;4.03;100.00;95372.13;6191840;28;20574;-42
2023/11/28 12:42:08;;;;;;;1.30;1.20;;;;;;;3.96;100.00;95373.44;6191321;28;20247;-43
2023/11/28 12:45:10;;;;;;;1.43;1.33;;;;;;;3.88;100.00;95372.06;6192728;28;20209;-43
2023/11/28 12:48:12;;;;;;;2.10;1.90;;;;;;;3.90;100.00;95371.84;6175548;28;20580;-45
2023/11/28 12:51:17;;;;;;;3.00;2.00;;;;;;;3.81;100.00;95377.56;6188987;28;20201;-43
2023/11/28 12:54:19;;;;;;;2.53;2.33;;;;;;;3.77;100.00;95376.50;6175031;28;20284;-47
2023/11/28 12:57:24;;;;;;;2.07;1.87;;;;;;;3.78;100.00;95372.03;6192334;28;20268;-44
2023/11/28 13:00:26;;;;;;;3.03;2.63;;;;;;;3.80;100.00;95377.84;6192658;28;20337;-43
2023/11/28 13:03:29;;;;;;;2.30;2.10;;;;;;;3.70;100.00;95362.78;6192614;28;20276;-43
2023/11/28 13:06:31;;;;;;;3.43;2.73;;;;;;;3.87;100.00;95376.53;6173270;28;20652;-44
2023/11/28 13:09:53;;;;;;;3.30;2.60;;;;;;;3.87;100.00;95383.66;6196352;28;20194;-44
2023/11/28 13:12:55;;;;;;;3.13;2.80;;;;;;;3.88;100.00;95383.38;6195445;28;20210;-44
2023/11/28 13:16:13;;;;;;;2.53;2.33;;;;;;;3.93;100.00;95373.94;6194992;28;20195;-43
2023/11/28 13:19:15;;;;;;;2.83;2.60;;;;;;;3.99;100.00;95386.91;6196763;28;20198;-44
2023/11/28 13:22:18;;;;;;;2.57;2.37;;;;;;;3.95;100.00;95377.13;6196515;28;20205;-42
2023/11/28 13:25:21;;;;;;;2.93;2.57;;;;;;;4.03;100.00;95389.78;6193290;28;20214;-43
2023/11/28 13:28:24;;;;;;;2.77;2.47;;;;;;;3.90;100.00;95382.38;6196442;28;20714;-42
2023/11/28 13:31:26;;;;;;;2.30;2.10;;;;;;;4.02;100.00;95410.06;6196174;28;20190;-43
2023/11/28 13:34:28;;;;;;;4.23;2.33;;;;;;;4.04;100.00;95399.28;6196382;28;20709;-43
2023/11/28 13:37:30;;;;;;;3.10;2.47;;;;;;;4.07;100.00;95406.66;6195571;28;20654;-43
2023/11/28 13:40:32;;;;;;;2.37;1.90;;;;;;;4.06;100.00;95402.47;6194774;28;20885;-43
2023/11/28 13:43:38;;;;;;;2.10;1.77;;;;;;;4.03;100.00;95416.13;6195555;28;20193;-43
2023/11/28 13:46:40;;;;;;;2.27;1.63;;;;;;;4.05;100.00;95406.16;6196149;28;20293;-41
2023/11/28 13:49:42;;;;;;;1.30;1.20;;;;;;;4.04;100.00;95415.91;6194590;28;20671;-46
2023/11/28 13:52:44;;;;;;;1.10;1.00;;;;;;;4.06;100.00;95416.41;6178318;28;20206;-43
2023/11/28 13:55:46;;;;;;;1.50;1.27;;;;;;;4.12;100.00;95410.13;6195296;28;20643;-43
2023/11/28 13:58:48;;;;;;;1.17;1.07;;;;;;;4.05;100.00;95412.22;6195762;28;20277;-43
2023/11/28 14:01:50;;;;;;;1.23;1.13;;;;;;;4.01;100.00;95420.88;6193972;28;20194;-45
2023/11/28 14:04:52;;;;;;;1.10;1.00;;;;;;;4.08;100.00;95427.47;6196137;28;20317;-44
2023/11/28 14:07:54;;;;;;;0.80;0.80;;;;;;;4.04;100.00;95433.53;6194172;28;21308;-43
2023/11/28 14:10:56;;;;;;;2.10;1.00;;;;;;;3.91;100.00;95423.44;6195219;28;20190;-42
2023/11/28 14:13:59;;;;;;;1.37;1.00;;;;;;;3.98;100.00;95442.44;6195368;28;20562;-44
2023/11/28 14:17:01;;;;;;;1.17;1.07;;;;;;;3.87;100.00;95442.38;6192795;28;20251;-42